sensor_id;sensor_type;location;lat;lon;timestamp;temperature;humidity
5476;DHT22;2760;50.000;9.194;2022-07-29T00:00:47;23.00;74.10
5476;DHT22;2760;50.000;9.194;2022-07-29T00:03:14;22.90;74.00
5476;DHT22;2760;50.000;9.194;2022-07-29T00:05:41;23.10;74.50
5476;DHT22;2760;50.000;9.194;2022-07-29T00:08:09;23.10;73.80
5476;DHT22;2760;50.000;9.194;2022-07-29T00:10:36;23.00;74.40
5476;DHT22;2760;50.000;9.194;2022-07-29T00:13:03;23.00;74.40
5476;DHT22;2760;50.000;9.194;2022-07-29T00:15:31;23.10;74.10
5476;DHT22;2760;50.000;9.194;2022-07-29T00:17:58;23.10;73.90
5476;DHT22;2760;50.000;9.194;2022-07-29T00:20:25;23.00;74.00
5476;DHT22;2760;50.000;9.194;2022-07-29T00:22:52;23.00;74.30
5476;DHT22;2760;50.000;9.194;2022-07-29T00:25:19;23.00;74.50
5476;DHT22;2760;50.000;9.194;2022-07-29T00:27:46;22.90;74.20
5476;DHT22;2760;50.000;9.194;2022-07-29T00:30:14;22.90;74.90
5476;DHT22;2760;50.000;9.194;2022-07-29T00:32:42;23.00;74.80
5476;DHT22;2760;50.000;9.194;2022-07-29T00:35:09;23.10;74.90
5476;DHT22;2760;50.000;9.194;2022-07-29T00:37:54;21.40;72.90
5476;DHT22;2760;50.000;9.194;2022-07-29T00:40:21;23.00;75.10
5476;DHT22;2760;50.000;9.194;2022-07-29T00:42:50;23.00;74.90
5476;DHT22;2760;50.000;9.194;2022-07-29T00:45:18;23.00;75.00
5476;DHT22;2760;50.000;9.194;2022-07-29T00:47:46;22.90;75.00
5476;DHT22;2760;50.000;9.194;2022-07-29T00:50:14;22.80;75.30
5476;DHT22;2760;50.000;9.194;2022-07-29T00:52:42;22.80;75.50
5476;DHT22;2760;50.000;9.194;2022-07-29T00:55:10;22.80;75.90
5476;DHT22;2760;50.000;9.194;2022-07-29T00:57:39;22.70;76.00
5476;DHT22;2760;50.000;9.194;2022-07-29T01:00:09;22.80;77.00
5476;DHT22;2760;50.000;9.194;2022-07-29T01:02:36;22.70;75.30
5476;DHT22;2760;50.000;9.194;2022-07-29T01:05:06;22.70;76.10
5476;DHT22;2760;50.000;9.194;2022-07-29T01:07:34;22.70;76.50
5476;DHT22;2760;50.000;9.194;2022-07-29T01:10:03;22.70;77.60
5476;DHT22;2760;50.000;9.194;2022-07-29T01:12:31;22.80;77.40
5476;DHT22;2760;50.000;9.194;2022-07-29T01:15:00;22.70;77.00
5476;DHT22;2760;50.000;9.194;2022-07-29T01:17:32;22.70;77.50
5476;DHT22;2760;50.000;9.194;2022-07-29T01:20:06;22.50;78.00
5476;DHT22;2760;50.000;9.194;2022-07-29T01:25:58;22.50;78.80
5476;DHT22;2760;50.000;9.194;2022-07-29T01:29:02;22.30;78.90
5476;DHT22;2760;50.000;9.194;2022-07-29T01:31:35;22.40;79.80
5476;DHT22;2760;50.000;9.194;2022-07-29T01:34:07;21.70;78.20
5476;DHT22;2760;50.000;9.194;2022-07-29T01:36:46;22.40;79.10
5476;DHT22;2760;50.000;9.194;2022-07-29T01:39:19;22.30;79.20
5476;DHT22;2760;50.000;9.194;2022-07-29T01:41:53;22.50;79.00
5476;DHT22;2760;50.000;9.194;2022-07-29T01:44:29;22.40;79.00
5476;DHT22;2760;50.000;9.194;2022-07-29T01:47:00;22.20;79.10
5476;DHT22;2760;50.000;9.194;2022-07-29T01:49:31;22.00;79.60
5476;DHT22;2760;50.000;9.194;2022-07-29T01:52:07;21.30;79.70
5476;DHT22;2760;50.000;9.194;2022-07-29T01:54:38;21.80;80.20
5476;DHT22;2760;50.000;9.194;2022-07-29T01:57:10;21.70;80.70
5476;DHT22;2760;50.000;9.194;2022-07-29T01:59:41;21.60;80.80
5476;DHT22;2760;50.000;9.194;2022-07-29T02:02:11;21.50;81.50
5476;DHT22;2760;50.000;9.194;2022-07-29T02:04:40;21.80;81.00
5476;DHT22;2760;50.000;9.194;2022-07-29T02:07:10;22.00;81.40
5476;DHT22;2760;50.000;9.194;2022-07-29T02:09:39;21.70;81.90
5476;DHT22;2760;50.000;9.194;2022-07-29T02:12:08;21.80;81.60
5476;DHT22;2760;50.000;9.194;2022-07-29T02:14:39;21.90;81.80
5476;DHT22;2760;50.000;9.194;2022-07-29T02:17:09;21.80;81.80
5476;DHT22;2760;50.000;9.194;2022-07-29T02:19:37;21.80;80.80
5476;DHT22;2760;50.000;9.194;2022-07-29T02:22:05;21.80;81.00
5476;DHT22;2760;50.000;9.194;2022-07-29T02:24:34;21.80;81.30
5476;DHT22;2760;50.000;9.194;2022-07-29T02:27:03;19.80;79.60
5476;DHT22;2760;50.000;9.194;2022-07-29T02:29:31;21.50;83.00
5476;DHT22;2760;50.000;9.194;2022-07-29T02:31:59;19.70;81.70
5476;DHT22;2760;50.000;9.194;2022-07-29T02:34:29;21.00;83.40
5476;DHT22;2760;50.000;9.194;2022-07-29T02:36:56;21.00;83.60
5476;DHT22;2760;50.000;9.194;2022-07-29T02:39:24;20.80;84.10
5476;DHT22;2760;50.000;9.194;2022-07-29T02:41:55;20.80;84.50
5476;DHT22;2760;50.000;9.194;2022-07-29T02:44:25;20.90;84.70
5476;DHT22;2760;50.000;9.194;2022-07-29T02:46:54;21.00;84.50
5476;DHT22;2760;50.000;9.194;2022-07-29T02:49:32;20.90;85.00
5476;DHT22;2760;50.000;9.194;2022-07-29T02:52:03;20.90;84.90
5476;DHT22;2760;50.000;9.194;2022-07-29T02:54:36;20.70;85.50
5476;DHT22;2760;50.000;9.194;2022-07-29T02:57:11;20.70;85.50
5476;DHT22;2760;50.000;9.194;2022-07-29T02:59:42;20.60;85.60
5476;DHT22;2760;50.000;9.194;2022-07-29T03:02:12;20.40;86.60
5476;DHT22;2760;50.000;9.194;2022-07-29T03:04:43;20.50;86.90
5476;DHT22;2760;50.000;9.194;2022-07-29T03:07:12;20.50;86.60
5476;DHT22;2760;50.000;9.194;2022-07-29T03:09:41;20.50;86.20
5476;DHT22;2760;50.000;9.194;2022-07-29T03:12:09;20.50;86.30
5476;DHT22;2760;50.000;9.194;2022-07-29T03:14:37;20.50;86.30
5476;DHT22;2760;50.000;9.194;2022-07-29T03:17:05;20.40;88.00
5476;DHT22;2760;50.000;9.194;2022-07-29T03:19:33;20.30;86.90
5476;DHT22;2760;50.000;9.194;2022-07-29T03:22:02;20.30;87.10
5476;DHT22;2760;50.000;9.194;2022-07-29T03:24:32;20.30;86.00
5476;DHT22;2760;50.000;9.194;2022-07-29T03:27:00;20.20;86.50
5476;DHT22;2760;50.000;9.194;2022-07-29T03:29:28;20.20;86.60
5476;DHT22;2760;50.000;9.194;2022-07-29T03:31:55;20.00;86.90
5476;DHT22;2760;50.000;9.194;2022-07-29T03:34:22;19.60;87.30
5476;DHT22;2760;50.000;9.194;2022-07-29T03:36:50;19.80;87.50
5476;DHT22;2760;50.000;9.194;2022-07-29T03:39:21;19.60;87.60
5476;DHT22;2760;50.000;9.194;2022-07-29T03:41:52;19.50;88.40
5476;DHT22;2760;50.000;9.194;2022-07-29T03:44:21;19.50;89.10
5476;DHT22;2760;50.000;9.194;2022-07-29T03:46:50;19.50;89.60
5476;DHT22;2760;50.000;9.194;2022-07-29T03:49:20;19.60;89.70
5476;DHT22;2760;50.000;9.194;2022-07-29T03:51:48;19.30;90.00
5476;DHT22;2760;50.000;9.194;2022-07-29T03:54:15;19.30;90.00
5476;DHT22;2760;50.000;9.194;2022-07-29T03:56:45;19.20;90.10
5476;DHT22;2760;50.000;9.194;2022-07-29T03:59:14;19.30;90.70
5476;DHT22;2760;50.000;9.194;2022-07-29T04:01:43;19.20;91.20
5476;DHT22;2760;50.000;9.194;2022-07-29T04:04:10;19.00;91.60
5476;DHT22;2760;50.000;9.194;2022-07-29T04:06:38;19.00;92.40
5476;DHT22;2760;50.000;9.194;2022-07-29T04:09:07;18.80;92.30
5476;DHT22;2760;50.000;9.194;2022-07-29T04:11:35;18.80;92.30
5476;DHT22;2760;50.000;9.194;2022-07-29T04:14:03;18.90;92.30
5476;DHT22;2760;50.000;9.194;2022-07-29T04:16:31;18.90;92.70
5476;DHT22;2760;50.000;9.194;2022-07-29T04:18:58;18.60;93.00
5476;DHT22;2760;50.000;9.194;2022-07-29T04:21:25;18.30;93.10
5476;DHT22;2760;50.000;9.194;2022-07-29T04:23:52;18.30;93.10
5476;DHT22;2760;50.000;9.194;2022-07-29T04:26:20;18.30;92.80
5476;DHT22;2760;50.000;9.194;2022-07-29T04:28:47;18.30;93.30
5476;DHT22;2760;50.000;9.194;2022-07-29T04:31:15;18.30;93.10
5476;DHT22;2760;50.000;9.194;2022-07-29T04:33:42;18.40;93.00
5476;DHT22;2760;50.000;9.194;2022-07-29T04:36:09;18.50;92.90
5476;DHT22;2760;50.000;9.194;2022-07-29T04:38:38;18.40;92.70
5476;DHT22;2760;50.000;9.194;2022-07-29T04:41:05;18.60;92.50
5476;DHT22;2760;50.000;9.194;2022-07-29T04:43:34;18.60;92.80
5476;DHT22;2760;50.000;9.194;2022-07-29T04:46:01;18.60;93.00
5476;DHT22;2760;50.000;9.194;2022-07-29T04:48:29;18.80;92.90
5476;DHT22;2760;50.000;9.194;2022-07-29T04:50:56;19.00;92.50
5476;DHT22;2760;50.000;9.194;2022-07-29T04:53:23;19.20;92.00
5476;DHT22;2760;50.000;9.194;2022-07-29T04:55:51;19.30;92.10
5476;DHT22;2760;50.000;9.194;2022-07-29T04:58:18;19.40;91.90
5476;DHT22;2760;50.000;9.194;2022-07-29T05:00:45;19.60;91.80
5476;DHT22;2760;50.000;9.194;2022-07-29T05:03:12;19.70;91.60
5476;DHT22;2760;50.000;9.194;2022-07-29T05:05:41;19.70;91.40
5476;DHT22;2760;50.000;9.194;2022-07-29T05:08:09;19.70;91.30
5476;DHT22;2760;50.000;9.194;2022-07-29T05:10:36;19.70;90.80
5476;DHT22;2760;50.000;9.194;2022-07-29T05:13:04;19.90;90.30
5476;DHT22;2760;50.000;9.194;2022-07-29T05:15:32;20.20;90.00
5476;DHT22;2760;50.000;9.194;2022-07-29T05:17:59;20.20;89.00
5476;DHT22;2760;50.000;9.194;2022-07-29T05:20:26;20.30;88.50
5476;DHT22;2760;50.000;9.194;2022-07-29T05:22:56;18.40;86.70
5476;DHT22;2760;50.000;9.194;2022-07-29T05:25:23;20.40;87.60
5476;DHT22;2760;50.000;9.194;2022-07-29T05:27:50;20.60;87.30
5476;DHT22;2760;50.000;9.194;2022-07-29T05:30:18;20.60;86.90
5476;DHT22;2760;50.000;9.194;2022-07-29T05:32:45;20.80;87.00
5476;DHT22;2760;50.000;9.194;2022-07-29T05:35:13;20.80;87.30
5476;DHT22;2760;50.000;9.194;2022-07-29T05:37:41;20.90;87.70
5476;DHT22;2760;50.000;9.194;2022-07-29T05:40:10;20.80;88.30
5476;DHT22;2760;50.000;9.194;2022-07-29T05:42:37;20.90;89.30
5476;DHT22;2760;50.000;9.194;2022-07-29T05:45:05;20.90;89.10
5476;DHT22;2760;50.000;9.194;2022-07-29T05:47:32;20.90;89.60
5476;DHT22;2760;50.000;9.194;2022-07-29T05:49:59;21.00;88.90
5476;DHT22;2760;50.000;9.194;2022-07-29T05:52:26;19.20;87.10
5476;DHT22;2760;50.000;9.194;2022-07-29T05:54:53;20.90;88.50
5476;DHT22;2760;50.000;9.194;2022-07-29T05:57:23;21.20;89.10
5476;DHT22;2760;50.000;9.194;2022-07-29T05:59:51;21.20;87.70
5476;DHT22;2760;50.000;9.194;2022-07-29T06:02:18;21.30;87.50
5476;DHT22;2760;50.000;9.194;2022-07-29T06:04:45;21.40;87.30
5476;DHT22;2760;50.000;9.194;2022-07-29T06:07:12;20.10;86.30
5476;DHT22;2760;50.000;9.194;2022-07-29T06:09:39;21.50;87.20
5476;DHT22;2760;50.000;9.194;2022-07-29T06:12:06;21.70;86.50
5476;DHT22;2760;50.000;9.194;2022-07-29T06:14:35;21.70;87.40
5476;DHT22;2760;50.000;9.194;2022-07-29T06:17:03;21.60;88.40
5476;DHT22;2760;50.000;9.194;2022-07-29T06:19:33;21.70;87.60
5476;DHT22;2760;50.000;9.194;2022-07-29T06:22:00;21.60;87.00
5476;DHT22;2760;50.000;9.194;2022-07-29T06:24:27;21.60;86.60
5476;DHT22;2760;50.000;9.194;2022-07-29T06:26:54;21.70;86.10
5476;DHT22;2760;50.000;9.194;2022-07-29T06:29:21;21.80;86.60
5476;DHT22;2760;50.000;9.194;2022-07-29T06:31:52;22.00;88.80
5476;DHT22;2760;50.000;9.194;2022-07-29T06:34:19;21.70;90.50
5476;DHT22;2760;50.000;9.194;2022-07-29T06:36:46;22.00;90.60
5476;DHT22;2760;50.000;9.194;2022-07-29T06:39:15;22.20;90.20
5476;DHT22;2760;50.000;9.194;2022-07-29T06:41:42;22.50;88.40
5476;DHT22;2760;50.000;9.194;2022-07-29T06:44:13;23.00;89.10
5476;DHT22;2760;50.000;9.194;2022-07-29T06:46:41;23.30;85.90
5476;DHT22;2760;50.000;9.194;2022-07-29T06:49:10;23.80;83.80
5476;DHT22;2760;50.000;9.194;2022-07-29T06:51:38;23.90;84.50
5476;DHT22;2760;50.000;9.194;2022-07-29T06:54:05;24.10;83.20
5476;DHT22;2760;50.000;9.194;2022-07-29T06:56:33;24.20;81.70
5476;DHT22;2760;50.000;9.194;2022-07-29T06:59:02;24.40;80.10
5476;DHT22;2760;50.000;9.194;2022-07-29T07:01:29;24.70;78.40
5476;DHT22;2760;50.000;9.194;2022-07-29T07:03:58;24.80;78.20
5476;DHT22;2760;50.000;9.194;2022-07-29T07:06:26;26.60;79.10
5476;DHT22;2760;50.000;9.194;2022-07-29T07:08:53;24.80;78.60
5476;DHT22;2760;50.000;9.194;2022-07-29T07:11:21;24.90;78.80
5476;DHT22;2760;50.000;9.194;2022-07-29T07:13:48;25.40;78.10
5476;DHT22;2760;50.000;9.194;2022-07-29T07:16:16;25.90;76.60
5476;DHT22;2760;50.000;9.194;2022-07-29T07:18:43;25.80;76.90
5476;DHT22;2760;50.000;9.194;2022-07-29T07:21:10;25.60;75.90
5476;DHT22;2760;50.000;9.194;2022-07-29T07:23:39;25.30;75.90
5476;DHT22;2760;50.000;9.194;2022-07-29T07:26:06;25.30;76.90
5476;DHT22;2760;50.000;9.194;2022-07-29T07:28:33;25.00;77.90
5476;DHT22;2760;50.000;9.194;2022-07-29T07:31:00;25.20;77.10
5476;DHT22;2760;50.000;9.194;2022-07-29T07:33:28;25.00;78.30
5476;DHT22;2760;50.000;9.194;2022-07-29T07:35:55;24.90;78.00
5476;DHT22;2760;50.000;9.194;2022-07-29T07:38:22;24.70;78.80
5476;DHT22;2760;50.000;9.194;2022-07-29T07:40:50;24.80;78.70
5476;DHT22;2760;50.000;9.194;2022-07-29T07:43:17;25.20;78.60
5476;DHT22;2760;50.000;9.194;2022-07-29T07:45:46;25.50;77.70
5476;DHT22;2760;50.000;9.194;2022-07-29T07:48:13;25.60;78.10
5476;DHT22;2760;50.000;9.194;2022-07-29T07:50:40;25.50;77.60
5476;DHT22;2760;50.000;9.194;2022-07-29T07:53:07;25.80;77.00
5476;DHT22;2760;50.000;9.194;2022-07-29T07:55:39;26.10;76.90
5476;DHT22;2760;50.000;9.194;2022-07-29T07:58:09;26.40;76.40
5476;DHT22;2760;50.000;9.194;2022-07-29T08:00:36;26.50;75.80
5476;DHT22;2760;50.000;9.194;2022-07-29T08:03:03;26.70;76.20
5476;DHT22;2760;50.000;9.194;2022-07-29T08:05:30;26.60;76.90
5476;DHT22;2760;50.000;9.194;2022-07-29T08:07:58;26.50;77.00
5476;DHT22;2760;50.000;9.194;2022-07-29T08:10:25;27.00;75.50
5476;DHT22;2760;50.000;9.194;2022-07-29T08:13:11;27.20;75.50
5476;DHT22;2760;50.000;9.194;2022-07-29T08:15:39;27.20;75.20
5476;DHT22;2760;50.000;9.194;2022-07-29T08:18:07;27.10;75.10
5476;DHT22;2760;50.000;9.194;2022-07-29T08:20:34;26.60;75.70
5476;DHT22;2760;50.000;9.194;2022-07-29T08:23:02;26.70;76.60
5476;DHT22;2760;50.000;9.194;2022-07-29T08:25:30;26.90;76.30
5476;DHT22;2760;50.000;9.194;2022-07-29T08:27:57;27.30;75.90
5476;DHT22;2760;50.000;9.194;2022-07-29T08:30:25;27.80;74.60
5476;DHT22;2760;50.000;9.194;2022-07-29T08:33:01;27.70;74.20
5476;DHT22;2760;50.000;9.194;2022-07-29T08:35:29;27.40;74.60
5476;DHT22;2760;50.000;9.194;2022-07-29T08:37:56;27.70;74.30
5476;DHT22;2760;50.000;9.194;2022-07-29T08:40:24;27.60;74.60
5476;DHT22;2760;50.000;9.194;2022-07-29T08:42:51;27.80;73.90
5476;DHT22;2760;50.000;9.194;2022-07-29T08:45:18;27.90;73.80
5476;DHT22;2760;50.000;9.194;2022-07-29T08:47:48;27.20;74.50
5476;DHT22;2760;50.000;9.194;2022-07-29T08:50:15;27.40;75.30
5476;DHT22;2760;50.000;9.194;2022-07-29T08:52:42;27.30;75.30
5476;DHT22;2760;50.000;9.194;2022-07-29T08:55:10;27.60;75.50
5476;DHT22;2760;50.000;9.194;2022-07-29T08:57:39;27.60;75.10
5476;DHT22;2760;50.000;9.194;2022-07-29T09:00:07;28.00;73.70
5476;DHT22;2760;50.000;9.194;2022-07-29T09:02:40;28.20;74.00
5476;DHT22;2760;50.000;9.194;2022-07-29T09:05:09;28.40;75.80
5476;DHT22;2760;50.000;9.194;2022-07-29T09:07:36;28.80;75.10
5476;DHT22;2760;50.000;9.194;2022-07-29T09:10:06;28.70;72.50
5476;DHT22;2760;50.000;9.194;2022-07-29T09:12:33;28.40;73.10
5476;DHT22;2760;50.000;9.194;2022-07-29T09:15:00;27.90;73.90
5476;DHT22;2760;50.000;9.194;2022-07-29T09:17:41;28.30;74.20
5476;DHT22;2760;50.000;9.194;2022-07-29T09:20:11;29.20;73.70
5476;DHT22;2760;50.000;9.194;2022-07-29T09:22:38;29.30;72.50
5476;DHT22;2760;50.000;9.194;2022-07-29T09:25:06;29.50;72.30
5476;DHT22;2760;50.000;9.194;2022-07-29T09:27:35;30.60;73.70
5476;DHT22;2760;50.000;9.194;2022-07-29T09:30:05;29.10;74.50
5476;DHT22;2760;50.000;9.194;2022-07-29T09:32:54;28.90;73.00
5476;DHT22;2760;50.000;9.194;2022-07-29T09:35:25;28.80;72.80
5476;DHT22;2760;50.000;9.194;2022-07-29T09:37:53;28.90;73.80
5476;DHT22;2760;50.000;9.194;2022-07-29T09:40:22;28.90;74.20
5476;DHT22;2760;50.000;9.194;2022-07-29T09:42:50;29.40;76.00
5476;DHT22;2760;50.000;9.194;2022-07-29T09:45:29;29.50;73.30
5476;DHT22;2760;50.000;9.194;2022-07-29T09:47:57;29.30;74.10
5476;DHT22;2760;50.000;9.194;2022-07-29T09:50:47;29.00;74.60
5476;DHT22;2760;50.000;9.194;2022-07-29T09:53:30;29.40;74.30
5476;DHT22;2760;50.000;9.194;2022-07-29T09:55:58;29.50;72.10
5476;DHT22;2760;50.000;9.194;2022-07-29T09:58:25;29.00;74.40
5476;DHT22;2760;50.000;9.194;2022-07-29T10:00:53;29.00;74.10
5476;DHT22;2760;50.000;9.194;2022-07-29T10:03:21;28.60;75.30
5476;DHT22;2760;50.000;9.194;2022-07-29T10:06:04;28.40;76.60
5476;DHT22;2760;50.000;9.194;2022-07-29T10:08:32;28.60;74.70
5476;DHT22;2760;50.000;9.194;2022-07-29T10:11:09;28.50;77.50
5476;DHT22;2760;50.000;9.194;2022-07-29T10:13:36;28.70;78.10
5476;DHT22;2760;50.000;9.194;2022-07-29T10:16:04;29.00;77.40
5476;DHT22;2760;50.000;9.194;2022-07-29T10:18:32;29.00;78.30
5476;DHT22;2760;50.000;9.194;2022-07-29T10:21:04;29.50;75.80
5476;DHT22;2760;50.000;9.194;2022-07-29T10:23:31;30.00;73.70
5476;DHT22;2760;50.000;9.194;2022-07-29T10:26:00;29.60;73.80
5476;DHT22;2760;50.000;9.194;2022-07-29T10:28:27;28.50;74.10
5476;DHT22;2760;50.000;9.194;2022-07-29T10:31:00;30.60;74.40
5476;DHT22;2760;50.000;9.194;2022-07-29T10:33:41;30.40;73.40
5476;DHT22;2760;50.000;9.194;2022-07-29T10:36:38;29.70;74.60
5476;DHT22;2760;50.000;9.194;2022-07-29T10:39:19;29.50;74.20
5476;DHT22;2760;50.000;9.194;2022-07-29T10:41:59;27.10;72.20
5476;DHT22;2760;50.000;9.194;2022-07-29T10:44:27;29.50;74.90
5476;DHT22;2760;50.000;9.194;2022-07-29T10:46:55;29.90;74.50
5476;DHT22;2760;50.000;9.194;2022-07-29T10:49:23;29.80;74.70
5476;DHT22;2760;50.000;9.194;2022-07-29T10:51:59;29.70;75.20
5476;DHT22;2760;50.000;9.194;2022-07-29T10:57:28;29.30;76.60
5476;DHT22;2760;50.000;9.194;2022-07-29T11:00:27;29.10;77.20
5476;DHT22;2760;50.000;9.194;2022-07-29T11:02:55;29.30;76.70
5476;DHT22;2760;50.000;9.194;2022-07-29T11:05:24;29.40;77.20
5476;DHT22;2760;50.000;9.194;2022-07-29T11:08:21;29.30;78.10
5476;DHT22;2760;50.000;9.194;2022-07-29T11:10:53;30.50;78.70
5476;DHT22;2760;50.000;9.194;2022-07-29T11:13:48;29.00;76.20
5476;DHT22;2760;50.000;9.194;2022-07-29T11:16:18;30.20;77.40
5476;DHT22;2760;50.000;9.194;2022-07-29T11:21:54;30.80;76.00
5476;DHT22;2760;50.000;9.194;2022-07-29T11:24:23;30.10;76.70
5476;DHT22;2760;50.000;9.194;2022-07-29T11:27:14;30.10;77.10
5476;DHT22;2760;50.000;9.194;2022-07-29T11:29:50;30.60;75.80
5476;DHT22;2760;50.000;9.194;2022-07-29T11:32:18;30.40;76.20
5476;DHT22;2760;50.000;9.194;2022-07-29T11:34:47;31.10;75.40
5476;DHT22;2760;50.000;9.194;2022-07-29T11:37:19;31.00;74.10
5476;DHT22;2760;50.000;9.194;2022-07-29T11:40:13;31.10;76.70
5476;DHT22;2760;50.000;9.194;2022-07-29T11:42:48;31.40;74.30
5476;DHT22;2760;50.000;9.194;2022-07-29T11:45:45;32.10;74.60
5476;DHT22;2760;50.000;9.194;2022-07-29T11:48:16;30.90;73.60
5476;DHT22;2760;50.000;9.194;2022-07-29T11:50:44;31.60;74.60
5476;DHT22;2760;50.000;9.194;2022-07-29T11:53:12;31.60;74.20
5476;DHT22;2760;50.000;9.194;2022-07-29T11:55:41;30.20;73.80
5476;DHT22;2760;50.000;9.194;2022-07-29T11:58:10;31.30;75.00
5476;DHT22;2760;50.000;9.194;2022-07-29T12:00:39;31.90;75.60
5476;DHT22;2760;50.000;9.194;2022-07-29T12:03:09;31.90;73.90
5476;DHT22;2760;50.000;9.194;2022-07-29T12:05:38;31.10;74.40
5476;DHT22;2760;50.000;9.194;2022-07-29T12:08:12;31.40;74.40
5476;DHT22;2760;50.000;9.194;2022-07-29T12:10:42;32.20;75.00
5476;DHT22;2760;50.000;9.194;2022-07-29T12:13:10;32.40;72.90
5476;DHT22;2760;50.000;9.194;2022-07-29T12:15:37;32.30;73.10
5476;DHT22;2760;50.000;9.194;2022-07-29T12:18:12;32.10;73.10
5476;DHT22;2760;50.000;9.194;2022-07-29T12:20:39;31.60;74.60
5476;DHT22;2760;50.000;9.194;2022-07-29T12:23:08;30.90;72.70
5476;DHT22;2760;50.000;9.194;2022-07-29T12:25:37;32.10;74.50
5476;DHT22;2760;50.000;9.194;2022-07-29T12:28:08;31.60;74.50
5476;DHT22;2760;50.000;9.194;2022-07-29T12:30:37;31.90;74.10
5476;DHT22;2760;50.000;9.194;2022-07-29T12:33:16;31.90;74.30
5476;DHT22;2760;50.000;9.194;2022-07-29T12:35:46;32.20;73.40
5476;DHT22;2760;50.000;9.194;2022-07-29T12:38:13;31.90;73.40
5476;DHT22;2760;50.000;9.194;2022-07-29T12:40:42;32.20;73.40
5476;DHT22;2760;50.000;9.194;2022-07-29T12:43:12;32.30;73.40
5476;DHT22;2760;50.000;9.194;2022-07-29T12:45:45;32.30;73.10
5476;DHT22;2760;50.000;9.194;2022-07-29T12:48:13;32.50;72.70
5476;DHT22;2760;50.000;9.194;2022-07-29T12:50:57;32.40;73.10
5476;DHT22;2760;50.000;9.194;2022-07-29T12:53:25;31.90;73.80
5476;DHT22;2760;50.000;9.194;2022-07-29T12:55:53;32.60;73.90
5476;DHT22;2760;50.000;9.194;2022-07-29T12:58:31;32.80;73.10
5476;DHT22;2760;50.000;9.194;2022-07-29T13:01:04;32.80;72.00
5476;DHT22;2760;50.000;9.194;2022-07-29T13:03:50;32.50;72.80
5476;DHT22;2760;50.000;9.194;2022-07-29T13:06:32;32.60;72.40
5476;DHT22;2760;50.000;9.194;2022-07-29T13:09:03;33.30;72.00
5476;DHT22;2760;50.000;9.194;2022-07-29T13:11:31;33.70;71.40
5476;DHT22;2760;50.000;9.194;2022-07-29T13:14:00;34.00;70.70
5476;DHT22;2760;50.000;9.194;2022-07-29T13:16:27;33.40;70.70
5476;DHT22;2760;50.000;9.194;2022-07-29T13:19:08;32.70;72.00
5476;DHT22;2760;50.000;9.194;2022-07-29T13:21:36;30.60;72.00
5476;DHT22;2760;50.000;9.194;2022-07-29T13:24:05;33.00;73.30
5476;DHT22;2760;50.000;9.194;2022-07-29T13:29:01;32.80;71.90
5476;DHT22;2760;50.000;9.194;2022-07-29T13:31:28;32.80;71.90
5476;DHT22;2760;50.000;9.194;2022-07-29T13:36:22;32.30;72.90
5476;DHT22;2760;50.000;9.194;2022-07-29T13:38:49;32.60;72.20
5476;DHT22;2760;50.000;9.194;2022-07-29T13:41:17;32.50;72.50
5476;DHT22;2760;50.000;9.194;2022-07-29T13:43:44;32.50;72.20
5476;DHT22;2760;50.000;9.194;2022-07-29T13:46:12;32.30;72.40
5476;DHT22;2760;50.000;9.194;2022-07-29T13:48:39;32.60;72.20
5476;DHT22;2760;50.000;9.194;2022-07-29T13:51:06;32.10;72.30
5476;DHT22;2760;50.000;9.194;2022-07-29T13:53:33;32.50;72.20
5476;DHT22;2760;50.000;9.194;2022-07-29T13:56:00;32.40;71.30
5476;DHT22;2760;50.000;9.194;2022-07-29T13:58:28;32.50;71.20
5476;DHT22;2760;50.000;9.194;2022-07-29T14:00:55;32.20;71.90
5476;DHT22;2760;50.000;9.194;2022-07-29T14:03:24;31.90;71.30
5476;DHT22;2760;50.000;9.194;2022-07-29T14:05:51;31.40;72.10
5476;DHT22;2760;50.000;9.194;2022-07-29T14:08:18;31.80;74.10
5476;DHT22;2760;50.000;9.194;2022-07-29T14:10:45;31.80;72.10
5476;DHT22;2760;50.000;9.194;2022-07-29T14:13:12;31.90;70.20
5476;DHT22;2760;50.000;9.194;2022-07-29T14:15:39;31.80;71.50
5476;DHT22;2760;50.000;9.194;2022-07-29T14:18:06;31.70;72.20
5476;DHT22;2760;50.000;9.194;2022-07-29T14:20:34;31.50;72.20
5476;DHT22;2760;50.000;9.194;2022-07-29T14:23:01;31.20;72.00
5476;DHT22;2760;50.000;9.194;2022-07-29T14:25:28;31.20;81.80
5476;DHT22;2760;50.000;9.194;2022-07-29T14:27:55;31.00;88.80
5476;DHT22;2760;50.000;9.194;2022-07-29T14:30:22;30.50;90.70
5476;DHT22;2760;50.000;9.194;2022-07-29T14:32:49;30.00;92.00
5476;DHT22;2760;50.000;9.194;2022-07-29T14:35:16;29.30;92.00
5476;DHT22;2760;50.000;9.194;2022-07-29T14:37:44;28.80;92.40
5476;DHT22;2760;50.000;9.194;2022-07-29T14:40:11;26.50;99.40
5476;DHT22;2760;50.000;9.194;2022-07-29T14:42:39;26.20;99.90
5476;DHT22;2760;50.000;9.194;2022-07-29T14:45:07;24.60;99.90
5476;DHT22;2760;50.000;9.194;2022-07-29T14:47:35;23.80;99.90
5476;DHT22;2760;50.000;9.194;2022-07-29T14:50:03;23.30;99.90
5476;DHT22;2760;50.000;9.194;2022-07-29T14:52:30;23.00;99.90
5476;DHT22;2760;50.000;9.194;2022-07-29T14:54:59;22.70;99.90
5476;DHT22;2760;50.000;9.194;2022-07-29T14:57:26;22.40;99.90
5476;DHT22;2760;50.000;9.194;2022-07-29T14:59:54;22.50;99.90
5476;DHT22;2760;50.000;9.194;2022-07-29T15:02:21;22.30;99.90
5476;DHT22;2760;50.000;9.194;2022-07-29T15:04:48;22.10;99.90
5476;DHT22;2760;50.000;9.194;2022-07-29T15:07:15;22.00;99.90
5476;DHT22;2760;50.000;9.194;2022-07-29T15:09:42;21.80;99.90
5476;DHT22;2760;50.000;9.194;2022-07-29T15:12:12;21.70;99.90
5476;DHT22;2760;50.000;9.194;2022-07-29T15:14:39;21.50;99.90
5476;DHT22;2760;50.000;9.194;2022-07-29T15:17:06;21.60;99.90
5476;DHT22;2760;50.000;9.194;2022-07-29T15:19:33;21.60;99.90
5476;DHT22;2760;50.000;9.194;2022-07-29T15:22:00;21.70;99.90
5476;DHT22;2760;50.000;9.194;2022-07-29T15:24:27;21.60;99.90
5476;DHT22;2760;50.000;9.194;2022-07-29T15:26:54;21.60;99.90
5476;DHT22;2760;50.000;9.194;2022-07-29T15:29:23;21.80;99.90
5476;DHT22;2760;50.000;9.194;2022-07-29T15:31:50;20.70;99.90
5476;DHT22;2760;50.000;9.194;2022-07-29T15:34:17;22.20;99.90
5476;DHT22;2760;50.000;9.194;2022-07-29T15:36:46;21.90;99.90
5476;DHT22;2760;50.000;9.194;2022-07-29T15:39:13;21.90;99.90
5476;DHT22;2760;50.000;9.194;2022-07-29T15:41:42;21.90;99.90
5476;DHT22;2760;50.000;9.194;2022-07-29T15:44:09;21.50;99.90
5476;DHT22;2760;50.000;9.194;2022-07-29T15:46:37;21.00;99.90
5476;DHT22;2760;50.000;9.194;2022-07-29T15:49:21;21.20;99.90
5476;DHT22;2760;50.000;9.194;2022-07-29T15:51:49;21.40;99.90
5476;DHT22;2760;50.000;9.194;2022-07-29T15:54:16;20.80;99.90
5476;DHT22;2760;50.000;9.194;2022-07-29T15:56:43;21.50;99.90
5476;DHT22;2760;50.000;9.194;2022-07-29T15:59:10;21.30;99.90
5476;DHT22;2760;50.000;9.194;2022-07-29T16:01:38;21.10;99.90
5476;DHT22;2760;50.000;9.194;2022-07-29T16:04:05;21.30;99.90
5476;DHT22;2760;50.000;9.194;2022-07-29T16:06:32;20.70;99.90
5476;DHT22;2760;50.000;9.194;2022-07-29T16:08:59;20.40;99.90
5476;DHT22;2760;50.000;9.194;2022-07-29T16:11:26;20.50;99.90
5476;DHT22;2760;50.000;9.194;2022-07-29T16:13:53;20.40;99.90
5476;DHT22;2760;50.000;9.194;2022-07-29T16:16:20;20.80;99.90
5476;DHT22;2760;50.000;9.194;2022-07-29T16:18:49;19.50;99.90
5476;DHT22;2760;50.000;9.194;2022-07-29T16:21:16;21.20;99.90
5476;DHT22;2760;50.000;9.194;2022-07-29T16:23:43;21.30;99.90
5476;DHT22;2760;50.000;9.194;2022-07-29T16:26:11;21.30;99.90
5476;DHT22;2760;50.000;9.194;2022-07-29T16:28:38;21.30;99.90
5476;DHT22;2760;50.000;9.194;2022-07-29T16:31:05;21.20;99.90